• Join FlightAware (Why Join?)
  • Login
  • US Flag 
01:13AM EDT


 

Airport Tracker/Info


-or-


 

Live Flight TrackerFlight Track Log ✈ ASA245 ✈ 26-Jun-2013 ✈ MMMX / MEX - KLAX

Flight Track Log - Related Links

Times and Time Zones

All times are in EDT time to prevent confusion due to time zone crossing. See the ASA245 flight status page for this flight to view local times or setup timezone preferences in your user account.

Time Position Orientation Groundspeed Altitude Reporting Facility
EDT Latitude Longitude Course Direction KTS MPH feet Rate Location/Type
06:48PM 32.2847 -115.0736 307° West 456 525 38,000  Level Los Angeles Center
06:49PM 32.3772 -115.2167 307° West 458 527 38,000  Level Los Angeles Center
06:50PM 32.4442 -115.3281 305° West 456 525 38,000  Level Los Angeles Center
06:51PM 32.5203 -115.4472 307° West 455 524 38,000  Level Los Angeles Center
06:52PM 32.6133 -115.5928 307° West 460 529 38,000  Level Los Angeles Center
06:53PM 32.6861 -115.7144 305° West 457 526 38,000  Level Los Angeles Center
06:54PM 32.7392 -115.8181 301° West 460 529 38,000 -600 Level Los Angeles Center
06:55PM 32.8200 -115.9703 302° West 457 526 36,800 -2,040 Descending Los Angeles Center
06:56PM 32.8867 -116.0964 302° West 461 531 33,800 -3,060 Descending Los Angeles Center
06:57PM 32.9633 -116.2433 302° West 472 543 30,500 -2,580 Descending Los Angeles Center
06:58PM 33.0178 -116.3472 302° West 473 544 28,500 -2,520 Descending Los Angeles Center
06:59PM 33.0992 -116.5033 302° West 454 522 25,400 -2,220 Descending Los Angeles Center
07:00PM 33.1478 -116.6325 294° West 438 504 23,900 -1,200 Descending Los Angeles Center
07:01PM 33.1678 -116.8011 278° West 428 493 22,900 -2,040 Descending Los Angeles Center
07:02PM 33.1856 -116.9475 278° West 440 506 19,800 -3,060 Descending Los Angeles Center
07:03PM 33.2017 -117.0908 278° West 441 507 16,600 -3,180 Descending Los Angeles Center
07:04PM 33.2167 -117.1833 281° West 426 490 14,800 -2,940 Descending Southern California TRACON
07:05PM 33.2333 -117.3000 280° West 432 497 12,400 -1,500 Descending Southern California TRACON
07:06PM 33.2333 -117.4333 270° West 410 472 12,000 -240 Descending Southern California TRACON
07:07PM 33.2500 -117.5667 279° West 388 447 12,000 -300 Level Southern California TRACON
07:08PM 33.2992 -117.6567 303° West 403 464 11,500 -1,020 Descending Los Angeles Center
07:09PM 33.3833 -117.7500 317° Northwest 365 420 10,000 -1,080 Descending Southern California TRACON
07:10PM 33.4500 -117.8167 320° Northwest 306 352 9,400 -1,020 Descending Southern California TRACON
07:11PM 33.5208 -117.8869 320° Northwest 312 359 7,900 -660 Descending Los Angeles Center
07:12PM 33.5811 -117.9506 319° Northwest 299 344 8,000  Climbing Los Angeles Center
07:13PM 33.6500 -118.0000 329° Northwest 294 338 7,900 -600 Descending Southern California TRACON
07:14PM 33.7167 -118.0333 337° Northwest 287 330 7,000 -480 Descending Southern California TRACON
07:15PM 33.8000 -118.0667 342° North 284 327 7,000 -300 Level Southern California TRACON
07:16PM 33.8500 -118.1000 331° Northwest 245 282 6,500 -900 Descending Southern California TRACON
07:17PM 33.9167 -118.1500 328° Northwest 234 269 5,400 -1,140 Descending Southern California TRACON
07:18PM 33.9500 -118.2000 309° West 217 250 4,200 -1,380 Descending Southern California TRACON
07:19PM 33.9500 -118.2667 270° West 198 228 2,700 -1,560 Descending Southern California TRACON
07:19PM 33.9469 -118.2900 261° West 199 229 2,000 -1,140 Descending Los Angeles Center
07:20PM 33.9417 -118.3458 264° West 182 209 1,000 -840 Descending Los Angeles Center
07:21PM 33.9369 -118.3975 264° West 161 185 300 -720 Descending Los Angeles Center
07:23PM 33.9333 -118.4000 296° West  Level FlightAware Approximate
07:30PM 33.9425 -118.4081 296° West  Level Estimated